sensor_id;sensor_type;location;lat;lon;timestamp;P1;durP1;ratioP1;P2;durP2;ratioP2
22184;SDS011;11258;52.516;13.318;2022-10-17T00:01:47;7.38;;;4.63;;
22184;SDS011;11258;52.516;13.318;2022-10-17T00:04:13;8.32;;;5.50;;
22184;SDS011;11258;52.516;13.318;2022-10-17T00:06:39;12.23;;;4.88;;
22184;SDS011;11258;52.516;13.318;2022-10-17T00:09:04;8.52;;;5.35;;
22184;SDS011;11258;52.516;13.318;2022-10-17T00:11:30;7.68;;;5.68;;
22184;SDS011;11258;52.516;13.318;2022-10-17T00:13:56;7.63;;;5.45;;
22184;SDS011;11258;52.516;13.318;2022-10-17T00:16:23;9.07;;;6.00;;
22184;SDS011;11258;52.516;13.318;2022-10-17T00:18:53;8.77;;;6.25;;
22184;SDS011;11258;52.516;13.318;2022-10-17T00:21:19;8.77;;;6.32;;
22184;SDS011;11258;52.516;13.318;2022-10-17T00:23:46;11.75;;;6.85;;
22184;SDS011;11258;52.516;13.318;2022-10-17T00:26:12;9.25;;;5.68;;
22184;SDS011;11258;52.516;13.318;2022-10-17T00:28:39;7.28;;;5.75;;
22184;SDS011;11258;52.516;13.318;2022-10-17T00:31:05;11.82;;;6.22;;
22184;SDS011;11258;52.516;13.318;2022-10-17T00:33:31;8.57;;;6.10;;
22184;SDS011;11258;52.516;13.318;2022-10-17T00:36:31;8.55;;;5.90;;
22184;SDS011;11258;52.516;13.318;2022-10-17T00:38:51;7.88;;;6.25;;
22184;SDS011;11258;52.516;13.318;2022-10-17T00:41:20;9.88;;;6.57;;
22184;SDS011;11258;52.516;13.318;2022-10-17T00:46:19;10.30;;;6.45;;
22184;SDS011;11258;52.516;13.318;2022-10-17T00:48:47;8.88;;;6.25;;
22184;SDS011;11258;52.516;13.318;2022-10-17T00:51:15;9.05;;;5.82;;
22184;SDS011;11258;52.516;13.318;2022-10-17T00:53:41;7.95;;;5.63;;
22184;SDS011;11258;52.516;13.318;2022-10-17T00:56:07;7.57;;;5.30;;
22184;SDS011;11258;52.516;13.318;2022-10-17T00:58:33;10.10;;;5.57;;
22184;SDS011;11258;52.516;13.318;2022-10-17T01:00:58;7.70;;;5.90;;
22184;SDS011;11258;52.516;13.318;2022-10-17T01:03:25;11.55;;;6.00;;
22184;SDS011;11258;52.516;13.318;2022-10-17T01:05:51;7.63;;;5.43;;
22184;SDS011;11258;52.516;13.318;2022-10-17T01:08:17;12.10;;;5.75;;
22184;SDS011;11258;52.516;13.318;2022-10-17T01:14:09;8.85;;;5.53;;
22184;SDS011;11258;52.516;13.318;2022-10-17T01:16:23;7.57;;;5.28;;
22184;SDS011;11258;52.516;13.318;2022-10-17T01:19:25;6.00;;;4.85;;
22184;SDS011;11258;52.516;13.318;2022-10-17T01:22:52;7.20;;;5.10;;
22184;SDS011;11258;52.516;13.318;2022-10-17T01:25:25;5.95;;;4.75;;
22184;SDS011;11258;52.516;13.318;2022-10-17T01:30:51;8.30;;;4.75;;
22184;SDS011;11258;52.516;13.318;2022-10-17T01:33:42;7.97;;;5.10;;
22184;SDS011;11258;52.516;13.318;2022-10-17T01:36:15;5.28;;;4.78;;
22184;SDS011;11258;52.516;13.318;2022-10-17T01:38:54;7.20;;;5.22;;
22184;SDS011;11258;52.516;13.318;2022-10-17T01:41:40;5.47;;;4.88;;
22184;SDS011;11258;52.516;13.318;2022-10-17T01:46:53;7.13;;;5.15;;
22184;SDS011;11258;52.516;13.318;2022-10-17T01:49:32;7.05;;;4.88;;
22184;SDS011;11258;52.516;13.318;2022-10-17T01:52:01;8.50;;;5.40;;
22184;SDS011;11258;52.516;13.318;2022-10-17T01:54:36;7.45;;;5.35;;
22184;SDS011;11258;52.516;13.318;2022-10-17T01:57:10;8.35;;;5.88;;
22184;SDS011;11258;52.516;13.318;2022-10-17T01:59:45;7.97;;;5.45;;
22184;SDS011;11258;52.516;13.318;2022-10-17T02:02:15;6.75;;;5.22;;
22184;SDS011;11258;52.516;13.318;2022-10-17T02:04:42;8.77;;;5.55;;
22184;SDS011;11258;52.516;13.318;2022-10-17T02:07:10;6.70;;;6.00;;
22184;SDS011;11258;52.516;13.318;2022-10-17T02:09:37;7.68;;;5.57;;
22184;SDS011;11258;52.516;13.318;2022-10-17T02:20:52;7.30;;;5.22;;
22184;SDS011;11258;52.516;13.318;2022-10-17T02:28:29;6.13;;;5.30;;
22184;SDS011;11258;52.516;13.318;2022-10-17T02:31:14;6.65;;;5.50;;
22184;SDS011;11258;52.516;13.318;2022-10-17T02:33:53;5.80;;;5.20;;
22184;SDS011;11258;52.516;13.318;2022-10-17T02:36:24;5.45;;;4.95;;
22184;SDS011;11258;52.516;13.318;2022-10-17T02:38:54;7.82;;;5.32;;
22184;SDS011;11258;52.516;13.318;2022-10-17T02:41:21;8.25;;;5.13;;
22184;SDS011;11258;52.516;13.318;2022-10-17T02:43:48;7.03;;;5.25;;
22184;SDS011;11258;52.516;13.318;2022-10-17T02:46:15;6.30;;;5.68;;
22184;SDS011;11258;52.516;13.318;2022-10-17T02:48:55;5.60;;;5.00;;
22184;SDS011;11258;52.516;13.318;2022-10-17T02:51:32;7.38;;;5.05;;
22184;SDS011;11258;52.516;13.318;2022-10-17T02:57:01;5.90;;;5.03;;
22184;SDS011;11258;52.516;13.318;2022-10-17T02:59:36;6.82;;;5.50;;
22184;SDS011;11258;52.516;13.318;2022-10-17T03:02:05;5.75;;;5.03;;
22184;SDS011;11258;52.516;13.318;2022-10-17T03:04:31;6.32;;;4.75;;
22184;SDS011;11258;52.516;13.318;2022-10-17T03:06:57;10.07;;;5.22;;
22184;SDS011;11258;52.516;13.318;2022-10-17T03:09:23;6.07;;;5.15;;
22184;SDS011;11258;52.516;13.318;2022-10-17T03:11:49;9.55;;;5.38;;
22184;SDS011;11258;52.516;13.318;2022-10-17T03:14:14;6.50;;;5.47;;
22184;SDS011;11258;52.516;13.318;2022-10-17T03:16:40;5.63;;;4.97;;
22184;SDS011;11258;52.516;13.318;2022-10-17T03:19:06;6.47;;;5.32;;
22184;SDS011;11258;52.516;13.318;2022-10-17T03:21:31;6.85;;;4.70;;
22184;SDS011;11258;52.516;13.318;2022-10-17T03:23:57;6.28;;;5.32;;
22184;SDS011;11258;52.516;13.318;2022-10-17T03:26:23;5.50;;;5.00;;
22184;SDS011;11258;52.516;13.318;2022-10-17T03:28:48;5.75;;;5.20;;
22184;SDS011;11258;52.516;13.318;2022-10-17T03:31:15;5.22;;;4.75;;
22184;SDS011;11258;52.516;13.318;2022-10-17T03:33:41;6.38;;;4.93;;
22184;SDS011;11258;52.516;13.318;2022-10-17T03:36:07;5.95;;;5.22;;
22184;SDS011;11258;52.516;13.318;2022-10-17T03:38:33;5.22;;;4.72;;
22184;SDS011;11258;52.516;13.318;2022-10-17T03:40:59;8.30;;;5.25;;
22184;SDS011;11258;52.516;13.318;2022-10-17T03:43:25;5.60;;;5.07;;
22184;SDS011;11258;52.516;13.318;2022-10-17T03:45:51;7.38;;;5.20;;
22184;SDS011;11258;52.516;13.318;2022-10-17T03:48:16;6.07;;;4.90;;
22184;SDS011;11258;52.516;13.318;2022-10-17T03:50:42;6.97;;;5.22;;
22184;SDS011;11258;52.516;13.318;2022-10-17T03:53:08;6.30;;;5.65;;
22184;SDS011;11258;52.516;13.318;2022-10-17T03:55:33;7.53;;;5.68;;
22184;SDS011;11258;52.516;13.318;2022-10-17T03:57:59;6.07;;;5.45;;
22184;SDS011;11258;52.516;13.318;2022-10-17T04:00:24;6.65;;;5.82;;
22184;SDS011;11258;52.516;13.318;2022-10-17T04:02:50;5.93;;;5.35;;
22184;SDS011;11258;52.516;13.318;2022-10-17T04:05:15;6.13;;;5.18;;
22184;SDS011;11258;52.516;13.318;2022-10-17T04:07:41;8.48;;;5.43;;
22184;SDS011;11258;52.516;13.318;2022-10-17T04:10:06;9.65;;;5.88;;
22184;SDS011;11258;52.516;13.318;2022-10-17T04:12:32;5.70;;;5.20;;
22184;SDS011;11258;52.516;13.318;2022-10-17T04:14:58;7.15;;;5.63;;
22184;SDS011;11258;52.516;13.318;2022-10-17T04:17:23;7.57;;;5.20;;
22184;SDS011;11258;52.516;13.318;2022-10-17T04:19:49;8.32;;;5.60;;
22184;SDS011;11258;52.516;13.318;2022-10-17T04:22:15;7.35;;;5.97;;
22184;SDS011;11258;52.516;13.318;2022-10-17T04:24:40;6.28;;;5.45;;
22184;SDS011;11258;52.516;13.318;2022-10-17T04:27:06;6.60;;;5.97;;
22184;SDS011;11258;52.516;13.318;2022-10-17T04:29:31;6.03;;;5.32;;
22184;SDS011;11258;52.516;13.318;2022-10-17T04:31:57;8.77;;;6.13;;
22184;SDS011;11258;52.516;13.318;2022-10-17T04:34:22;8.88;;;5.38;;
22184;SDS011;11258;52.516;13.318;2022-10-17T04:36:48;7.70;;;5.57;;
22184;SDS011;11258;52.516;13.318;2022-10-17T04:39:15;6.15;;;5.43;;
22184;SDS011;11258;52.516;13.318;2022-10-17T04:41:41;7.25;;;6.53;;
22184;SDS011;11258;52.516;13.318;2022-10-17T04:44:07;10.75;;;6.10;;
22184;SDS011;11258;52.516;13.318;2022-10-17T04:46:33;6.55;;;5.47;;
22184;SDS011;11258;52.516;13.318;2022-10-17T04:48:59;8.65;;;6.53;;
22184;SDS011;11258;52.516;13.318;2022-10-17T04:51:24;8.98;;;6.82;;
22184;SDS011;11258;52.516;13.318;2022-10-17T04:53:50;9.98;;;5.95;;
22184;SDS011;11258;52.516;13.318;2022-10-17T04:56:17;10.95;;;6.53;;
22184;SDS011;11258;52.516;13.318;2022-10-17T04:58:44;6.75;;;5.63;;
22184;SDS011;11258;52.516;13.318;2022-10-17T05:01:11;7.63;;;5.35;;
22184;SDS011;11258;52.516;13.318;2022-10-17T05:03:38;9.73;;;5.90;;
22184;SDS011;11258;52.516;13.318;2022-10-17T05:06:05;8.93;;;5.75;;
22184;SDS011;11258;52.516;13.318;2022-10-17T05:08:31;8.77;;;5.65;;
22184;SDS011;11258;52.516;13.318;2022-10-17T05:10:57;7.03;;;5.97;;
22184;SDS011;11258;52.516;13.318;2022-10-17T05:13:22;6.97;;;5.50;;
22184;SDS011;11258;52.516;13.318;2022-10-17T05:15:48;10.23;;;6.13;;
22184;SDS011;11258;52.516;13.318;2022-10-17T05:18:14;8.30;;;6.32;;
22184;SDS011;11258;52.516;13.318;2022-10-17T05:20:39;9.00;;;6.68;;
22184;SDS011;11258;52.516;13.318;2022-10-17T05:23:05;10.85;;;6.85;;
22184;SDS011;11258;52.516;13.318;2022-10-17T05:25:30;11.48;;;6.30;;
22184;SDS011;11258;52.516;13.318;2022-10-17T05:27:56;10.30;;;6.15;;
22184;SDS011;11258;52.516;13.318;2022-10-17T05:30:21;12.05;;;6.65;;
22184;SDS011;11258;52.516;13.318;2022-10-17T05:32:48;6.57;;;5.93;;
22184;SDS011;11258;52.516;13.318;2022-10-17T05:35:16;7.35;;;6.30;;
22184;SDS011;11258;52.516;13.318;2022-10-17T05:37:41;7.03;;;5.85;;
22184;SDS011;11258;52.516;13.318;2022-10-17T05:40:07;6.63;;;5.65;;
22184;SDS011;11258;52.516;13.318;2022-10-17T05:42:33;6.35;;;5.55;;
22184;SDS011;11258;52.516;13.318;2022-10-17T05:44:58;7.38;;;6.22;;
22184;SDS011;11258;52.516;13.318;2022-10-17T05:47:24;6.97;;;5.80;;
22184;SDS011;11258;52.516;13.318;2022-10-17T05:49:49;7.82;;;5.75;;
22184;SDS011;11258;52.516;13.318;2022-10-17T05:52:15;9.38;;;6.28;;
22184;SDS011;11258;52.516;13.318;2022-10-17T05:54:41;8.13;;;5.45;;
22184;SDS011;11258;52.516;13.318;2022-10-17T05:57:06;7.63;;;5.38;;
22184;SDS011;11258;52.516;13.318;2022-10-17T05:59:32;9.20;;;5.97;;
22184;SDS011;11258;52.516;13.318;2022-10-17T06:01:57;9.18;;;5.95;;
22184;SDS011;11258;52.516;13.318;2022-10-17T06:04:23;6.05;;;5.45;;
22184;SDS011;11258;52.516;13.318;2022-10-17T06:06:48;9.00;;;5.75;;
22184;SDS011;11258;52.516;13.318;2022-10-17T06:09:14;6.82;;;4.60;;
22184;SDS011;11258;52.516;13.318;2022-10-17T06:11:39;5.00;;;4.60;;
22184;SDS011;11258;52.516;13.318;2022-10-17T06:14:05;6.95;;;4.53;;
22184;SDS011;11258;52.516;13.318;2022-10-17T06:16:31;8.00;;;5.22;;
22184;SDS011;11258;52.516;13.318;2022-10-17T06:18:56;8.50;;;4.60;;
22184;SDS011;11258;52.516;13.318;2022-10-17T06:21:23;5.53;;;4.22;;
22184;SDS011;11258;52.516;13.318;2022-10-17T06:23:50;5.22;;;4.10;;
22184;SDS011;11258;52.516;13.318;2022-10-17T06:26:16;6.53;;;3.92;;
22184;SDS011;11258;52.516;13.318;2022-10-17T06:28:42;10.48;;;4.05;;
22184;SDS011;11258;52.516;13.318;2022-10-17T06:31:12;6.10;;;4.05;;
22184;SDS011;11258;52.516;13.318;2022-10-17T06:33:39;4.45;;;4.00;;
22184;SDS011;11258;52.516;13.318;2022-10-17T06:36:05;6.25;;;4.28;;
22184;SDS011;11258;52.516;13.318;2022-10-17T06:38:34;6.95;;;4.63;;
22184;SDS011;11258;52.516;13.318;2022-10-17T06:41:04;5.75;;;4.20;;
22184;SDS011;11258;52.516;13.318;2022-10-17T06:43:42;5.82;;;4.35;;
22184;SDS011;11258;52.516;13.318;2022-10-17T06:46:10;5.65;;;4.40;;
22184;SDS011;11258;52.516;13.318;2022-10-17T06:48:37;5.32;;;4.22;;
22184;SDS011;11258;52.516;13.318;2022-10-17T06:51:03;9.77;;;4.00;;
22184;SDS011;11258;52.516;13.318;2022-10-17T06:53:31;10.65;;;4.78;;
22184;SDS011;11258;52.516;13.318;2022-10-17T06:55:59;5.80;;;4.40;;
22184;SDS011;11258;52.516;13.318;2022-10-17T06:58:27;7.25;;;4.47;;
22184;SDS011;11258;52.516;13.318;2022-10-17T07:01:01;6.78;;;4.18;;
22184;SDS011;11258;52.516;13.318;2022-10-17T07:03:29;5.10;;;3.67;;
22184;SDS011;11258;52.516;13.318;2022-10-17T07:05:55;5.03;;;4.13;;
22184;SDS011;11258;52.516;13.318;2022-10-17T07:08:22;6.68;;;4.55;;
22184;SDS011;11258;52.516;13.318;2022-10-17T07:10:48;4.85;;;4.10;;
22184;SDS011;11258;52.516;13.318;2022-10-17T07:13:13;4.63;;;3.75;;
22184;SDS011;11258;52.516;13.318;2022-10-17T07:15:40;21.33;;;15.60;;
22184;SDS011;11258;52.516;13.318;2022-10-17T07:18:05;5.13;;;4.07;;
22184;SDS011;11258;52.516;13.318;2022-10-17T07:20:32;4.65;;;3.88;;
22184;SDS011;11258;52.516;13.318;2022-10-17T07:22:58;8.40;;;3.78;;
22184;SDS011;11258;52.516;13.318;2022-10-17T07:25:23;5.00;;;4.07;;
22184;SDS011;11258;52.516;13.318;2022-10-17T07:27:49;7.40;;;6.22;;
22184;SDS011;11258;52.516;13.318;2022-10-17T07:30:16;5.47;;;4.15;;
22184;SDS011;11258;52.516;13.318;2022-10-17T07:32:42;4.78;;;3.70;;
22184;SDS011;11258;52.516;13.318;2022-10-17T07:35:08;6.18;;;4.40;;
22184;SDS011;11258;52.516;13.318;2022-10-17T07:37:34;5.05;;;3.97;;
22184;SDS011;11258;52.516;13.318;2022-10-17T07:40:00;5.25;;;3.97;;
22184;SDS011;11258;52.516;13.318;2022-10-17T07:42:26;4.05;;;3.65;;
22184;SDS011;11258;52.516;13.318;2022-10-17T07:44:52;4.55;;;3.72;;
22184;SDS011;11258;52.516;13.318;2022-10-17T07:47:18;6.82;;;3.58;;
22184;SDS011;11258;52.516;13.318;2022-10-17T07:49:44;3.97;;;3.47;;
22184;SDS011;11258;52.516;13.318;2022-10-17T07:52:10;5.15;;;3.72;;
22184;SDS011;11258;52.516;13.318;2022-10-17T07:54:40;5.20;;;3.63;;
22184;SDS011;11258;52.516;13.318;2022-10-17T07:57:06;4.43;;;3.17;;
22184;SDS011;11258;52.516;13.318;2022-10-17T07:59:32;3.90;;;3.50;;
22184;SDS011;11258;52.516;13.318;2022-10-17T08:01:58;5.68;;;4.07;;
22184;SDS011;11258;52.516;13.318;2022-10-17T08:04:24;5.90;;;3.63;;
22184;SDS011;11258;52.516;13.318;2022-10-17T08:06:50;21.95;;;3.83;;
22184;SDS011;11258;52.516;13.318;2022-10-17T08:09:17;5.25;;;3.63;;
22184;SDS011;11258;52.516;13.318;2022-10-17T08:11:42;4.75;;;3.35;;
22184;SDS011;11258;52.516;13.318;2022-10-17T08:14:08;5.53;;;3.92;;
22184;SDS011;11258;52.516;13.318;2022-10-17T08:16:35;6.38;;;4.00;;
22184;SDS011;11258;52.516;13.318;2022-10-17T08:19:01;4.22;;;3.67;;
22184;SDS011;11258;52.516;13.318;2022-10-17T08:21:27;5.43;;;3.65;;
22184;SDS011;11258;52.516;13.318;2022-10-17T08:23:52;4.53;;;3.42;;
22184;SDS011;11258;52.516;13.318;2022-10-17T08:26:18;5.38;;;3.22;;
22184;SDS011;11258;52.516;13.318;2022-10-17T08:28:44;5.60;;;3.60;;
22184;SDS011;11258;52.516;13.318;2022-10-17T08:31:12;9.38;;;3.55;;
22184;SDS011;11258;52.516;13.318;2022-10-17T08:33:45;8.00;;;3.50;;
22184;SDS011;11258;52.516;13.318;2022-10-17T08:36:12;9.98;;;4.00;;
22184;SDS011;11258;52.516;13.318;2022-10-17T08:38:39;6.13;;;3.40;;
22184;SDS011;11258;52.516;13.318;2022-10-17T08:41:12;4.03;;;3.47;;
22184;SDS011;11258;52.516;13.318;2022-10-17T08:46:40;6.45;;;3.40;;
22184;SDS011;11258;52.516;13.318;2022-10-17T08:49:12;8.40;;;3.22;;
22184;SDS011;11258;52.516;13.318;2022-10-17T08:51:53;6.55;;;3.33;;
22184;SDS011;11258;52.516;13.318;2022-10-17T08:54:40;8.77;;;2.60;;
22184;SDS011;11258;52.516;13.318;2022-10-17T08:57:10;7.95;;;3.35;;
22184;SDS011;11258;52.516;13.318;2022-10-17T08:59:38;6.65;;;3.28;;
22184;SDS011;11258;52.516;13.318;2022-10-17T09:08:09;8.52;;;3.28;;
22184;SDS011;11258;52.516;13.318;2022-10-17T09:10:46;5.95;;;3.15;;
22184;SDS011;11258;52.516;13.318;2022-10-17T09:13:42;4.03;;;2.85;;
22184;SDS011;11258;52.516;13.318;2022-10-17T09:16:32;4.60;;;3.00;;
22184;SDS011;11258;52.516;13.318;2022-10-17T09:19:17;5.65;;;3.05;;
22184;SDS011;11258;52.516;13.318;2022-10-17T09:21:57;5.68;;;2.80;;
22184;SDS011;11258;52.516;13.318;2022-10-17T09:24:38;5.00;;;4.15;;
22184;SDS011;11258;52.516;13.318;2022-10-17T09:27:14;6.30;;;3.67;;
22184;SDS011;11258;52.516;13.318;2022-10-17T09:30:14;4.22;;;2.90;;
22184;SDS011;11258;52.516;13.318;2022-10-17T09:32:59;6.05;;;3.15;;
22184;SDS011;11258;52.516;13.318;2022-10-17T09:35:26;5.18;;;2.80;;
22184;SDS011;11258;52.516;13.318;2022-10-17T09:37:53;3.50;;;2.70;;
22184;SDS011;11258;52.516;13.318;2022-10-17T09:40:26;6.45;;;2.95;;
22184;SDS011;11258;52.516;13.318;2022-10-17T09:43:00;4.80;;;3.05;;
22184;SDS011;11258;52.516;13.318;2022-10-17T09:45:29;3.22;;;2.85;;
22184;SDS011;11258;52.516;13.318;2022-10-17T09:50:49;7.07;;;3.25;;
22184;SDS011;11258;52.516;13.318;2022-10-17T09:56:03;4.40;;;3.08;;
22184;SDS011;11258;52.516;13.318;2022-10-17T09:58:42;8.07;;;2.80;;
22184;SDS011;11258;52.516;13.318;2022-10-17T10:01:20;5.43;;;3.10;;
22184;SDS011;11258;52.516;13.318;2022-10-17T10:04:12;4.38;;;3.15;;
22184;SDS011;11258;52.516;13.318;2022-10-17T10:06:40;8.20;;;3.10;;
22184;SDS011;11258;52.516;13.318;2022-10-17T10:09:24;7.30;;;3.33;;
22184;SDS011;11258;52.516;13.318;2022-10-17T10:11:54;6.57;;;2.58;;
22184;SDS011;11258;52.516;13.318;2022-10-17T10:14:34;4.07;;;2.42;;
22184;SDS011;11258;52.516;13.318;2022-10-17T10:17:04;6.25;;;3.03;;
22184;SDS011;11258;52.516;13.318;2022-10-17T10:19:49;2.65;;;2.45;;
22184;SDS011;11258;52.516;13.318;2022-10-17T10:22:16;4.07;;;2.75;;
22184;SDS011;11258;52.516;13.318;2022-10-17T10:24:43;3.45;;;2.75;;
22184;SDS011;11258;52.516;13.318;2022-10-17T10:27:13;3.15;;;2.67;;
22184;SDS011;11258;52.516;13.318;2022-10-17T10:29:41;3.17;;;2.50;;
22184;SDS011;11258;52.516;13.318;2022-10-17T10:37:41;6.68;;;2.60;;
22184;SDS011;11258;52.516;13.318;2022-10-17T10:40:54;8.15;;;3.00;;
22184;SDS011;11258;52.516;13.318;2022-10-17T10:43:01;4.57;;;2.38;;
22184;SDS011;11258;52.516;13.318;2022-10-17T10:48:01;4.47;;;2.75;;
22184;SDS011;11258;52.516;13.318;2022-10-17T10:50:46;5.22;;;3.20;;
22184;SDS011;11258;52.516;13.318;2022-10-17T10:58:54;2.95;;;2.40;;
22184;SDS011;11258;52.516;13.318;2022-10-17T11:06:51;4.03;;;2.72;;
22184;SDS011;11258;52.516;13.318;2022-10-17T11:12:10;8.00;;;2.80;;
22184;SDS011;11258;52.516;13.318;2022-10-17T11:14:50;4.40;;;2.72;;
22184;SDS011;11258;52.516;13.318;2022-10-17T11:17:29;3.42;;;2.45;;
22184;SDS011;11258;52.516;13.318;2022-10-17T11:22:33;4.35;;;2.55;;
22184;SDS011;11258;52.516;13.318;2022-10-17T11:27:57;5.35;;;2.88;;
22184;SDS011;11258;52.516;13.318;2022-10-17T11:30:23;4.18;;;2.72;;
22184;SDS011;11258;52.516;13.318;2022-10-17T11:32:57;4.63;;;2.75;;
22184;SDS011;11258;52.516;13.318;2022-10-17T11:35:26;4.78;;;2.38;;
22184;SDS011;11258;52.516;13.318;2022-10-17T11:40:30;4.80;;;2.40;;
22184;SDS011;11258;52.516;13.318;2022-10-17T11:43:00;6.03;;;2.70;;
22184;SDS011;11258;52.516;13.318;2022-10-17T11:45:31;3.75;;;2.75;;
22184;SDS011;11258;52.516;13.318;2022-10-17T11:48:12;4.28;;;2.38;;
22184;SDS011;11258;52.516;13.318;2022-10-17T11:50:45;3.85;;;3.03;;
22184;SDS011;11258;52.516;13.318;2022-10-17T11:53:19;6.65;;;2.80;;
22184;SDS011;11258;52.516;13.318;2022-10-17T11:55:47;5.10;;;2.92;;
22184;SDS011;11258;52.516;13.318;2022-10-17T12:01:16;7.50;;;3.03;;
22184;SDS011;11258;52.516;13.318;2022-10-17T12:04:03;6.75;;;3.45;;
22184;SDS011;11258;52.516;13.318;2022-10-17T12:09:31;5.25;;;2.83;;
22184;SDS011;11258;52.516;13.318;2022-10-17T12:12:23;7.38;;;2.92;;
22184;SDS011;11258;52.516;13.318;2022-10-17T12:15:26;4.70;;;2.38;;
22184;SDS011;11258;52.516;13.318;2022-10-17T12:17:56;3.50;;;2.55;;
22184;SDS011;11258;52.516;13.318;2022-10-17T12:20:27;4.65;;;3.20;;
22184;SDS011;11258;52.516;13.318;2022-10-17T12:25:32;3.47;;;2.42;;
22184;SDS011;11258;52.516;13.318;2022-10-17T12:28:08;6.07;;;2.70;;
22184;SDS011;11258;52.516;13.318;2022-10-17T12:30:34;4.28;;;2.85;;
22184;SDS011;11258;52.516;13.318;2022-10-17T12:33:01;7.32;;;2.60;;
22184;SDS011;11258;52.516;13.318;2022-10-17T12:35:45;5.75;;;2.70;;
22184;SDS011;11258;52.516;13.318;2022-10-17T12:38:18;5.60;;;2.63;;
22184;SDS011;11258;52.516;13.318;2022-10-17T12:53:35;5.88;;;2.53;;
22184;SDS011;11258;52.516;13.318;2022-10-17T12:56:35;5.47;;;2.53;;
22184;SDS011;11258;52.516;13.318;2022-10-17T13:01:52;5.80;;;2.80;;
22184;SDS011;11258;52.516;13.318;2022-10-17T13:04:21;5.93;;;3.17;;
22184;SDS011;11258;52.516;13.318;2022-10-17T13:06:48;5.20;;;2.63;;
22184;SDS011;11258;52.516;13.318;2022-10-17T13:09:31;4.93;;;2.30;;
22184;SDS011;11258;52.516;13.318;2022-10-17T13:12:02;2.67;;;2.30;;
22184;SDS011;11258;52.516;13.318;2022-10-17T13:14:30;5.60;;;2.83;;
22184;SDS011;11258;52.516;13.318;2022-10-17T13:17:02;4.30;;;2.60;;
22184;SDS011;11258;52.516;13.318;2022-10-17T13:19:30;5.53;;;2.53;;
22184;SDS011;11258;52.516;13.318;2022-10-17T13:22:27;5.65;;;2.50;;
22184;SDS011;11258;52.516;13.318;2022-10-17T13:25:05;4.30;;;2.30;;
22184;SDS011;11258;52.516;13.318;2022-10-17T13:27:34;6.57;;;2.55;;
22184;SDS011;11258;52.516;13.318;2022-10-17T13:30:00;3.45;;;1.80;;
22184;SDS011;11258;52.516;13.318;2022-10-17T13:32:46;5.28;;;2.72;;
22184;SDS011;11258;52.516;13.318;2022-10-17T13:35:13;6.95;;;2.50;;
22184;SDS011;11258;52.516;13.318;2022-10-17T13:37:41;2.95;;;1.90;;
22184;SDS011;11258;52.516;13.318;2022-10-17T13:40:29;5.07;;;2.30;;
22184;SDS011;11258;52.516;13.318;2022-10-17T13:42:57;4.07;;;2.35;;
22184;SDS011;11258;52.516;13.318;2022-10-17T13:45:30;11.27;;;2.35;;
22184;SDS011;11258;52.516;13.318;2022-10-17T13:47:58;4.00;;;2.63;;
22184;SDS011;11258;52.516;13.318;2022-10-17T13:50:31;4.72;;;2.50;;
22184;SDS011;11258;52.516;13.318;2022-10-17T13:55:31;6.78;;;3.03;;
22184;SDS011;11258;52.516;13.318;2022-10-17T13:58:07;3.63;;;2.30;;
22184;SDS011;11258;52.516;13.318;2022-10-17T14:00:45;4.70;;;2.28;;
22184;SDS011;11258;52.516;13.318;2022-10-17T14:03:13;5.30;;;2.45;;
22184;SDS011;11258;52.516;13.318;2022-10-17T14:05:58;7.05;;;2.35;;
22184;SDS011;11258;52.516;13.318;2022-10-17T14:08:24;2.15;;;1.92;;
22184;SDS011;11258;52.516;13.318;2022-10-17T14:10:50;8.55;;;2.10;;
22184;SDS011;11258;52.516;13.318;2022-10-17T14:13:18;3.00;;;2.17;;
22184;SDS011;11258;52.516;13.318;2022-10-17T14:15:46;5.03;;;2.05;;
22184;SDS011;11258;52.516;13.318;2022-10-17T14:18:14;5.47;;;2.20;;
22184;SDS011;11258;52.516;13.318;2022-10-17T14:20:48;4.90;;;2.28;;
22184;SDS011;11258;52.516;13.318;2022-10-17T14:28:37;5.80;;;2.10;;
22184;SDS011;11258;52.516;13.318;2022-10-17T14:33:42;6.35;;;2.50;;
22184;SDS011;11258;52.516;13.318;2022-10-17T14:36:09;7.07;;;2.72;;
22184;SDS011;11258;52.516;13.318;2022-10-17T14:38:35;5.95;;;2.33;;
22184;SDS011;11258;52.516;13.318;2022-10-17T14:41:02;4.15;;;1.95;;
22184;SDS011;11258;52.516;13.318;2022-10-17T14:43:32;5.82;;;2.70;;
22184;SDS011;11258;52.516;13.318;2022-10-17T14:45:58;6.32;;;2.05;;
22184;SDS011;11258;52.516;13.318;2022-10-17T14:48:25;3.30;;;2.03;;
22184;SDS011;11258;52.516;13.318;2022-10-17T14:53:58;7.38;;;2.78;;
22184;SDS011;11258;52.516;13.318;2022-10-17T14:56:26;5.78;;;2.55;;
22184;SDS011;11258;52.516;13.318;2022-10-17T14:59:03;4.78;;;2.50;;
22184;SDS011;11258;52.516;13.318;2022-10-17T15:01:29;7.53;;;2.80;;
22184;SDS011;11258;52.516;13.318;2022-10-17T15:03:56;3.53;;;2.78;;
22184;SDS011;11258;52.516;13.318;2022-10-17T15:06:28;2.85;;;2.33;;
22184;SDS011;11258;52.516;13.318;2022-10-17T15:08:56;6.13;;;2.78;;
22184;SDS011;11258;52.516;13.318;2022-10-17T15:11:22;4.82;;;2.55;;
22184;SDS011;11258;52.516;13.318;2022-10-17T15:13:48;7.95;;;3.15;;
22184;SDS011;11258;52.516;13.318;2022-10-17T15:16:15;3.33;;;2.60;;
22184;SDS011;11258;52.516;13.318;2022-10-17T15:18:43;4.25;;;2.63;;
22184;SDS011;11258;52.516;13.318;2022-10-17T15:21:11;5.28;;;2.85;;
22184;SDS011;11258;52.516;13.318;2022-10-17T15:23:38;8.23;;;3.10;;
22184;SDS011;11258;52.516;13.318;2022-10-17T15:26:09;6.28;;;2.83;;
22184;SDS011;11258;52.516;13.318;2022-10-17T15:28:39;4.43;;;2.70;;
22184;SDS011;11258;52.516;13.318;2022-10-17T15:31:05;3.72;;;2.40;;
22184;SDS011;11258;52.516;13.318;2022-10-17T15:33:32;9.40;;;2.90;;
22184;SDS011;11258;52.516;13.318;2022-10-17T15:35:58;3.92;;;2.50;;
22184;SDS011;11258;52.516;13.318;2022-10-17T15:38:23;8.30;;;2.67;;
22184;SDS011;11258;52.516;13.318;2022-10-17T15:40:49;3.22;;;2.70;;
22184;SDS011;11258;52.516;13.318;2022-10-17T15:43:15;5.22;;;2.80;;
22184;SDS011;11258;52.516;13.318;2022-10-17T15:45:41;5.35;;;2.90;;
22184;SDS011;11258;52.516;13.318;2022-10-17T15:48:07;7.38;;;3.45;;
22184;SDS011;11258;52.516;13.318;2022-10-17T15:50:43;6.28;;;2.88;;
22184;SDS011;11258;52.516;13.318;2022-10-17T15:53:12;4.82;;;3.20;;
22184;SDS011;11258;52.516;13.318;2022-10-17T15:55:38;4.32;;;3.17;;
22184;SDS011;11258;52.516;13.318;2022-10-17T15:58:04;8.75;;;3.83;;
22184;SDS011;11258;52.516;13.318;2022-10-17T16:00:29;7.93;;;2.90;;
22184;SDS011;11258;52.516;13.318;2022-10-17T16:02:55;7.78;;;3.53;;
22184;SDS011;11258;52.516;13.318;2022-10-17T16:05:22;6.07;;;3.28;;
22184;SDS011;11258;52.516;13.318;2022-10-17T16:07:53;4.40;;;2.90;;
22184;SDS011;11258;52.516;13.318;2022-10-17T16:10:19;5.97;;;2.58;;
22184;SDS011;11258;52.516;13.318;2022-10-17T16:12:45;5.82;;;2.90;;
22184;SDS011;11258;52.516;13.318;2022-10-17T16:15:14;6.93;;;3.13;;
22184;SDS011;11258;52.516;13.318;2022-10-17T16:17:58;5.18;;;3.08;;
22184;SDS011;11258;52.516;13.318;2022-10-17T16:20:24;6.40;;;2.65;;
22184;SDS011;11258;52.516;13.318;2022-10-17T16:22:50;5.75;;;3.10;;
22184;SDS011;11258;52.516;13.318;2022-10-17T16:25:18;8.32;;;3.13;;
22184;SDS011;11258;52.516;13.318;2022-10-17T16:27:45;4.65;;;2.83;;
22184;SDS011;11258;52.516;13.318;2022-10-17T16:30:12;7.40;;;2.95;;
22184;SDS011;11258;52.516;13.318;2022-10-17T16:32:39;7.30;;;3.08;;
22184;SDS011;11258;52.516;13.318;2022-10-17T16:35:05;6.00;;;2.47;;
22184;SDS011;11258;52.516;13.318;2022-10-17T16:37:31;7.53;;;3.00;;
22184;SDS011;11258;52.516;13.318;2022-10-17T16:39:57;7.78;;;2.78;;